Time,TemperatureF,DewpointF,PressureIn,WindDirection,WindDirectionDegrees,WindSpeedMPH,WindSpeedGustMPH,Humidity,HourlyPrecipIn,Conditions,Clouds,dailyrainin,SoftwareType,DateUTC
2013-03-14 12:50:00,35.3,22.4,30.31,WNW,283,4.0,7.0,59,0.00,,,0.00,Wunderground v.1.15,2013-03-14 16:50:00,
2013-03-14 12:55:00,35.9,22.5,30.31,West,273,4.0,7.0,58,0.00,,,0.00,Wunderground v.1.15,2013-03-14 16:55:00,
2013-03-14 13:00:00,36.1,21.9,30.31,West,261,4.0,4.0,56,0.00,,,0.00,Wunderground v.1.15,2013-03-14 17:00:00,
2013-03-14 13:05:00,36.7,23.3,30.30,West,261,4.0,10.0,58,0.00,,,0.00,Wunderground v.1.15,2013-03-14 17:05:00,
2013-03-14 13:15:00,36.2,22.8,30.30,SSW,201,4.0,5.0,58,0.00,,,0.00,Wunderground v.1.15,2013-03-14 17:15:00,
2013-03-14 13:20:00,36.5,23.9,30.30,WSW,242,3.0,3.0,60,0.00,,,0.00,Wunderground v.1.15,2013-03-14 17:20:00,
2013-03-14 13:25:00,36.6,23.6,30.30,SSW,200,4.0,4.0,59,0.00,,,0.00,Wunderground v.1.15,2013-03-14 17:25:00,
2013-03-14 13:30:00,36.7,24.1,30.30,SSW,207,5.0,6.0,60,0.00,,,0.00,Wunderground v.1.15,2013-03-14 17:30:00,
2013-03-14 13:40:00,37.0,24.0,30.30,WSW,257,4.0,4.0,59,0.00,,,0.00,Wunderground v.1.15,2013-03-14 17:40:00,
2013-03-14 13:50:00,37.8,23.9,30.30,SSW,207,3.0,11.0,57,0.00,,,0.00,Wunderground v.1.15,2013-03-14 17:50:00,
2013-03-14 13:55:00,37.5,24.1,30.30,SSW,211,4.0,11.0,58,0.00,,,0.00,Wunderground v.1.15,2013-03-14 17:55:00,
2013-03-14 14:00:00,37.9,24.4,30.29,South,182,4.0,11.0,58,0.00,,,0.00,Wunderground v.1.15,2013-03-14 18:00:00,
2013-03-14 14:05:00,38.1,24.2,30.29,South,189,5.0,11.0,57,0.00,,,0.00,Wunderground v.1.15,2013-03-14 18:05:00,
2013-03-14 14:10:00,38.1,24.6,30.28,SW,231,5.0,5.0,58,0.00,,,0.00,Wunderground v.1.15,2013-03-14 18:10:00,
2013-03-14 14:20:00,38.4,23.6,30.28,SSW,201,4.0,4.0,55,0.00,,,0.00,Wunderground v.1.15,2013-03-14 18:20:00,
2013-03-14 14:25:00,38.1,23.3,30.28,SW,234,4.0,11.0,55,0.00,,,0.00,Wunderground v.1.15,2013-03-14 18:25:00,
2013-03-14 14:30:00,38.5,24.1,30.28,SW,228,4.0,4.0,56,0.00,,,0.00,Wunderground v.1.15,2013-03-14 18:30:00,
2013-03-14 14:40:00,39.3,24.5,30.28,WSW,254,3.0,3.0,55,0.00,,,0.00,Wunderground v.1.15,2013-03-14 18:40:00,
2013-03-14 14:45:00,39.4,23.7,30.28,SSE,167,3.0,11.0,53,0.00,,,0.00,Wunderground v.1.15,2013-03-14 18:45:00,
2013-03-14 14:55:00,39.2,24.8,30.28,WSW,254,4.0,11.0,56,0.00,,,0.00,Wunderground v.1.15,2013-03-14 18:55:00,
2013-03-14 15:00:00,39.2,24.8,30.27,West,259,3.0,11.0,56,0.00,,,0.00,Wunderground v.1.15,2013-03-14 19:00:00,
2013-03-14 15:05:00,39.3,24.9,30.27,WSW,238,3.0,11.0,56,0.00,,,0.00,Wunderground v.1.15,2013-03-14 19:05:00,
2013-03-14 15:10:00,39.1,24.3,30.26,SSW,200,4.0,11.0,55,0.00,,,0.00,Wunderground v.1.15,2013-03-14 19:10:00,
2013-03-14 15:15:00,38.9,24.5,30.26,South,189,4.0,11.0,56,0.00,,,0.00,Wunderground v.1.15,2013-03-14 19:15:00,
2013-03-14 15:20:00,38.6,24.2,30.26,SW,223,4.0,4.0,56,0.00,,,0.00,Wunderground v.1.15,2013-03-14 19:20:00,
2013-03-14 15:25:00,38.9,24.9,30.26,West,275,3.0,6.0,57,0.00,,,0.00,Wunderground v.1.15,2013-03-14 19:25:00,
2013-03-14 15:30:00,38.8,24.9,30.26,SW,223,4.0,4.0,57,0.00,,,0.00,Wunderground v.1.15,2013-03-14 19:30:00,
2013-03-14 15:40:00,38.5,25.8,30.25,WSW,250,5.0,11.0,60,0.00,,,0.00,Wunderground v.1.15,2013-03-14 19:40:00,
2013-03-14 15:45:00,38.0,26.9,30.25,WSW,246,5.0,11.0,64,0.00,,,0.00,Wunderground v.1.15,2013-03-14 19:45:00,
2013-03-14 15:50:00,37.8,27.5,30.24,SSW,202,4.0,4.0,66,0.00,,,0.00,Wunderground v.1.15,2013-03-14 19:50:00,
2013-03-14 15:55:00,37.7,27.7,30.24,SSW,203,4.0,6.0,67,0.00,,,0.00,Wunderground v.1.15,2013-03-14 19:55:00,
2013-03-14 16:05:00,37.0,28.1,30.24,West,267,3.0,11.0,70,0.00,,,0.00,Wunderground v.1.15,2013-03-14 20:05:00,
2013-03-14 16:10:00,37.0,28.5,30.24,WSW,254,2.0,2.0,71,0.00,,,0.00,Wunderground v.1.15,2013-03-14 20:10:00,
2013-03-14 16:15:00,37.3,28.8,30.24,South,182,1.0,11.0,71,0.00,,,0.00,Wunderground v.1.15,2013-03-14 20:15:00,
2013-03-14 16:20:00,37.2,28.7,30.24,WSW,240,2.0,11.0,71,0.00,,,0.00,Wunderground v.1.15,2013-03-14 20:20:00,
2013-03-14 16:25:00,36.5,28.7,30.24,SW,223,3.0,11.0,73,0.00,,,0.00,Wunderground v.1.15,2013-03-14 20:25:00,
2013-03-14 16:30:00,36.0,29.2,30.24,SW,236,4.0,11.0,76,0.00,,,0.00,Wunderground v.1.15,2013-03-14 20:30:00,
2013-03-14 16:35:00,35.8,29.9,30.24,SSW,194,3.0,11.0,79,0.00,,,0.00,Wunderground v.1.15,2013-03-14 20:35:00,
2013-03-14 16:45:00,35.0,30.7,30.24,SW,221,4.0,11.0,84,0.00,,,0.00,Wunderground v.1.15,2013-03-14 20:45:00,
2013-03-14 16:50:00,34.7,30.4,30.24,SW,217,3.0,3.0,84,0.00,,,0.00,Wunderground v.1.15,2013-03-14 20:50:00,
2013-03-14 16:55:00,34.6,30.8,30.24,South,186,2.0,11.0,86,0.00,,,0.00,Wunderground v.1.15,2013-03-14 20:55:00,
2013-03-14 17:00:00,34.6,31.1,30.24,South,186,1.0,11.0,87,0.00,,,0.00,Wunderground v.1.15,2013-03-14 21:00:00,
2013-03-14 17:05:00,34.6,31.1,30.24,South,186,2.0,11.0,87,0.00,,,0.00,Wunderground v.1.15,2013-03-14 21:05:00,
2013-03-14 17:10:00,34.6,31.1,30.24,South,186,1.0,11.0,87,0.00,,,0.00,Wunderground v.1.15,2013-03-14 21:10:00,
2013-03-14 17:15:00,34.5,31.0,30.24,SW,215,2.0,11.0,87,0.00,,,0.00,Wunderground v.1.15,2013-03-14 21:15:00,
2013-03-14 17:20:00,34.3,30.8,30.23,SSE,163,2.0,11.0,87,0.00,,,0.00,Wunderground v.1.15,2013-03-14 21:20:00,
2013-03-14 17:30:00,34.1,30.9,30.23,SSW,209,2.0,11.0,88,0.00,,,0.00,Wunderground v.1.15,2013-03-14 21:30:00,
2013-03-14 17:35:00,34.0,31.1,30.23,SSW,209,3.0,11.0,89,0.00,,,0.00,Wunderground v.1.15,2013-03-14 21:35:00,
2013-03-14 17:45:00,34.1,31.5,30.23,SSW,209,1.0,11.0,90,0.00,,,0.00,Wunderground v.1.15,2013-03-14 21:45:00,
2013-03-14 17:50:00,34.1,31.5,30.23,SSW,209,0.0,11.0,90,0.00,,,0.00,Wunderground v.1.15,2013-03-14 21:50:00,
2013-03-14 18:00:00,34.0,31.4,30.22,SSW,209,1.0,1.0,90,0.00,,,0.00,Wunderground v.1.15,2013-03-14 22:00:00,
2013-03-14 18:05:00,34.0,31.6,30.22,SSW,209,1.0,11.0,91,0.00,,,0.01,Wunderground v.1.15,2013-03-14 22:05:00,
2013-03-14 18:10:00,33.9,31.6,30.22,SSW,209,1.0,11.0,91,0.00,,,0.01,Wunderground v.1.15,2013-03-14 22:10:00,
2013-03-14 18:15:00,33.8,31.2,30.22,SSW,195,1.0,11.0,90,0.00,,,0.01,Wunderground v.1.15,2013-03-14 22:15:00,
2013-03-14 18:20:00,33.7,31.1,30.23,SSW,195,2.0,2.0,90,0.00,,,0.01,Wunderground v.1.15,2013-03-14 22:20:00,
2013-03-14 18:25:00,33.7,31.1,30.23,SSW,195,2.0,5.0,90,0.00,,,0.01,Wunderground v.1.15,2013-03-14 22:25:00,
2013-03-14 18:30:00,33.7,31.1,30.23,SSW,195,2.0,2.0,90,0.00,,,0.01,Wunderground v.1.15,2013-03-14 22:30:00,
2013-03-14 18:35:00,33.7,31.1,30.23,SSW,195,2.0,3.0,90,0.00,,,0.01,Wunderground v.1.15,2013-03-14 22:35:00,
2013-03-14 18:40:00,33.6,31.3,30.22,South,178,2.0,2.0,91,0.00,,,0.01,Wunderground v.1.15,2013-03-14 22:40:00,
2013-03-14 18:50:00,33.0,31.2,30.22,SW,214,3.0,11.0,93,0.00,,,0.01,Wunderground v.1.15,2013-03-14 22:50:00,
2013-03-14 18:55:00,32.7,30.9,30.22,SSW,200,3.0,11.0,93,0.00,,,0.01,Wunderground v.1.15,2013-03-14 22:55:00,
2013-03-14 19:00:00,32.6,31.1,30.21,SSW,213,3.0,11.0,94,0.00,,,0.01,Wunderground v.1.15,2013-03-14 23:00:00,
2013-03-14 19:05:00,32.5,31.0,30.21,South,190,3.0,11.0,94,0.00,,,0.01,Wunderground v.1.15,2013-03-14 23:05:00,
2013-03-14 19:10:00,32.4,30.9,30.21,SSW,193,3.0,3.0,94,0.00,,,0.01,Wunderground v.1.15,2013-03-14 23:10:00,
2013-03-14 19:15:00,32.3,31.0,30.22,SSW,193,2.0,11.0,95,0.00,,,0.01,Wunderground v.1.15,2013-03-14 23:15:00,
2013-03-14 19:20:00,32.3,31.0,30.22,SSW,196,2.0,2.0,95,0.00,,,0.01,Wunderground v.1.15,2013-03-14 23:20:00,
2013-03-14 19:25:00,32.2,30.9,30.21,SSW,210,3.0,3.0,95,0.00,,,0.01,Wunderground v.1.15,2013-03-14 23:25:00,
2013-03-14 19:30:00,32.2,30.9,30.21,SSW,208,2.0,11.0,95,0.00,,,0.01,Wunderground v.1.15,2013-03-14 23:30:00,
2013-03-14 19:35:00,32.2,30.9,30.22,SSW,196,3.0,11.0,95,0.00,,,0.01,Wunderground v.1.15,2013-03-14 23:35:00,
2013-03-14 19:45:00,32.2,30.9,30.22,SSW,196,1.0,11.0,95,0.00,,,0.01,Wunderground v.1.15,2013-03-14 23:45:00,
2013-03-14 19:50:00,32.2,30.9,30.22,SSW,196,1.0,1.0,95,0.00,,,0.01,Wunderground v.1.15,2013-03-14 23:50:00,
2013-03-14 19:55:00,32.2,30.9,30.23,SSW,196,1.0,11.0,95,0.00,,,0.01,Wunderground v.1.15,2013-03-14 23:55:00,
2013-03-14 20:05:00,32.2,30.9,30.23,SSW,196,1.0,11.0,95,0.00,,,0.01,Wunderground v.1.15,2013-03-15 00:05:00,
2013-03-14 20:10:00,32.2,30.9,30.22,SSW,196,1.0,11.0,95,0.00,,,0.01,Wunderground v.1.15,2013-03-15 00:10:00,
2013-03-14 20:15:00,32.2,30.9,30.22,SSW,196,0.0,11.0,95,0.00,,,0.01,Wunderground v.1.15,2013-03-15 00:15:00,
2013-03-14 20:20:00,32.1,30.8,30.22,SSW,196,0.0,11.0,95,0.00,,,0.01,Wunderground v.1.15,2013-03-15 00:20:00,
2013-03-14 20:30:00,32.2,30.9,30.22,SSW,196,0.0,11.0,95,0.00,,,0.01,Wunderground v.1.15,2013-03-15 00:30:00,
2013-03-14 20:35:00,32.1,30.8,30.22,SSW,196,1.0,11.0,95,0.00,,,0.01,Wunderground v.1.15,2013-03-15 00:35:00,
2013-03-14 20:40:00,32.1,30.8,30.22,SSW,196,1.0,1.0,95,0.00,,,0.01,Wunderground v.1.15,2013-03-15 00:40:00,
2013-03-14 20:45:00,32.1,30.8,30.22,SSW,196,0.0,11.0,95,0.00,,,0.01,Wunderground v.1.15,2013-03-15 00:45:00,
2013-03-14 20:50:00,32.2,30.9,30.22,SSW,196,1.0,1.0,95,0.00,,,0.01,Wunderground v.1.15,2013-03-15 00:50:00,
2013-03-14 20:55:00,32.2,30.9,30.22,SSW,196,1.0,11.0,95,0.00,,,0.01,Wunderground v.1.15,2013-03-15 00:55:00,
2013-03-14 21:00:00,32.2,31.2,30.21,SSW,196,1.0,1.0,96,0.00,,,0.01,Wunderground v.1.15,2013-03-15 01:00:00,
2013-03-14 21:10:00,32.2,31.2,30.21,SSW,196,0.0,11.0,96,0.00,,,0.01,Wunderground v.1.15,2013-03-15 01:10:00,
2013-03-14 21:15:00,32.3,31.3,30.21,SSE,148,1.0,11.0,96,0.00,,,0.01,Wunderground v.1.15,2013-03-15 01:15:00,
2013-03-14 21:20:00,32.3,31.3,30.20,SE,144,1.0,11.0,96,0.00,,,0.01,Wunderground v.1.15,2013-03-15 01:20:00,
2013-03-14 21:30:00,32.3,31.3,30.20,South,189,1.0,11.0,96,0.00,,,0.01,Wunderground v.1.15,2013-03-15 01:30:00,
2013-03-14 21:35:00,32.3,31.3,30.20,South,189,1.0,11.0,96,0.00,,,0.01,Wunderground v.1.15,2013-03-15 01:35:00,
2013-03-14 21:45:00,32.3,31.3,30.20,South,189,2.0,11.0,96,0.00,,,0.01,Wunderground v.1.15,2013-03-15 01:45:00,
2013-03-14 21:50:00,32.3,31.3,30.20,SSE,151,2.0,11.0,96,0.00,,,0.01,Wunderground v.1.15,2013-03-15 01:50:00,
2013-03-14 21:55:00,32.4,31.4,30.20,SSW,192,2.0,11.0,96,0.00,,,0.01,Wunderground v.1.15,2013-03-15 01:55:00,
2013-03-14 22:00:00,32.4,31.4,30.19,SSW,192,2.0,11.0,96,0.00,,,0.01,Wunderground v.1.15,2013-03-15 02:00:00,
2013-03-14 22:05:00,32.4,31.4,30.18,South,184,2.0,11.0,96,0.00,,,0.01,Wunderground v.1.15,2013-03-15 02:05:00,
2013-03-14 22:15:00,32.3,31.3,30.18,SSE,162,2.0,3.0,96,0.00,,,0.01,Wunderground v.1.15,2013-03-15 02:15:00,
2013-03-14 22:20:00,32.3,31.0,30.18,South,190,3.0,11.0,95,0.00,,,0.01,Wunderground v.1.15,2013-03-15 02:20:00,
2013-03-14 22:25:00,32.4,31.1,30.18,South,184,2.0,11.0,95,0.00,,,0.01,Wunderground v.1.15,2013-03-15 02:25:00,
2013-03-14 22:30:00,32.4,31.1,30.18,SSW,196,2.0,2.0,95,0.00,,,0.01,Wunderground v.1.15,2013-03-15 02:30:00,
2013-03-14 22:35:00,32.4,31.1,30.18,South,181,3.0,3.0,95,0.00,,,0.01,Wunderground v.1.15,2013-03-15 02:35:00,
2013-03-14 22:40:00,32.5,31.5,30.18,East,88,3.0,11.0,96,0.00,,,0.01,Wunderground v.1.15,2013-03-15 02:40:00,
2013-03-14 22:45:00,32.5,31.2,30.18,SSW,198,3.0,11.0,95,0.00,,,0.01,Wunderground v.1.15,2013-03-15 02:45:00,
2013-03-14 22:50:00,32.5,31.2,30.18,SW,220,2.0,11.0,95,0.00,,,0.01,Wunderground v.1.15,2013-03-15 02:50:00,
2013-03-14 22:55:00,32.5,31.2,30.18,South,186,2.0,11.0,95,0.00,,,0.01,Wunderground v.1.15,2013-03-15 02:55:00,
2013-03-14 23:05:00,32.4,31.1,30.17,South,180,1.0,11.0,95,0.00,,,0.01,Wunderground v.1.15,2013-03-15 03:05:00,
2013-03-14 23:10:00,32.4,31.1,30.18,South,180,2.0,11.0,95,0.00,,,0.01,Wunderground v.1.15,2013-03-15 03:10:00,
2013-03-14 23:15:00,32.4,31.1,30.17,SW,223,2.0,11.0,95,0.00,,,0.01,Wunderground v.1.15,2013-03-15 03:15:00,
2013-03-14 23:20:00,32.3,31.0,30.17,South,180,2.0,2.0,95,0.00,,,0.01,Wunderground v.1.15,2013-03-15 03:20:00,
2013-03-14 23:30:00,32.1,30.8,30.16,South,184,2.0,2.0,95,0.00,,,0.01,Wunderground v.1.15,2013-03-15 03:30:00,
2013-03-14 23:35:00,32.0,30.7,30.16,SSW,203,1.0,3.0,95,0.00,,,0.01,Wunderground v.1.15,2013-03-15 03:35:00,
2013-03-14 23:40:00,31.9,30.6,30.16,South,178,1.0,11.0,95,0.00,,,0.01,Wunderground v.1.15,2013-03-15 03:40:00,
2013-03-14 23:45:00,31.8,30.5,30.15,South,178,1.0,11.0,95,0.00,,,0.01,Wunderground v.1.15,2013-03-15 03:45:00,
2013-03-14 23:50:00,31.8,30.5,30.15,SW,221,2.0,11.0,95,0.00,,,0.01,Wunderground v.1.15,2013-03-15 03:50:00,
2013-03-14 23:55:00,31.9,30.6,30.15,SSW,208,3.0,11.0,95,0.00,,,0.01,Wunderground v.1.15,2013-03-15 03:55:00,